Aeroporto :
LOGIN :

Iscrizione | Disclaimer

   EN    FR    IT 

 










Sommario :    VFR   VFR Marginale   IFR   IFR Intensivo   IFR Molto Intensivo
Visibilità : 
Base nubi : 
>= 8 km
>= 3000ft
5 / 8 km
1000 / 3000 ft
1500m / 5 km
500 / 1000 ft
800 / 1500m
200 / 500 ft
< 800m
< 200 ft
Simboli :   Temporali  Nebbia  Neve Forte  Precipitazioni Forti  Vento > 20 kt
SIGMETs :   Varie  Temporali  Ghiacco  Turbolenza  Onda orograficha  Ceneri Vulcaniche






- Altitudine del aeroporto : 37 ft


EHVL - Vlieland Heliport

ULTIMO METAR :
  • 101325Z AUTO 10008KT 9999 BKN070 BKN250 12/05 Q1028 BLU

METARs OBSOLETI :
  • 101255Z AUTO 09008KT 9999 OVC067 10/04 Q1028 BLU
  • 101225Z AUTO 09007KT 9999 OVC066 10/05 Q1028 BLU
  • 101155Z AUTO 09008KT 9999 SCT058 OVC063 10/05 Q1028 BLU
  • 101125Z AUTO 09009KT 060V120 9999 SCT057 OVC240 10/05 Q1028 BLU
  • 101055Z AUTO 10008KT 060V120 9999 OVC230 10/05 Q1029 BLU

Previsioni scadute.



MetMap, La meteo Aeronautica in un colpo d'occhio ! - Copyright ORBIFLY Dicembre 2007 - Disclaimer

ORBIFLY MET'MAP TEAM :

Programmazione e sviluppo : Alexandra Zaïnal
Concezione : Baudouin d'Aumeries
Aiuto per la programmazione : Marc-Olivier Méhu
Supporto tecnico e logistico : Manuel Goepfert
Aiuto per la traduzione : Arnaldo La Scala

Contatto : metmap@orbifly.com




FONTI E CREDITI :

   NOAA